Aviation Digital Data Service (ADDS)

Output produced by METARs form (0205 UTC 23 April 2021)
found at http://aviationweather.gov/metar/data/
 
KBWI 222320Z 2300/2406 29010G20KT P6SM SCT090 
     FM230200 27007KT P6SM SCT090 
     FM230600 25004KT P6SM SKC 
     FM231400 27010G18KT P6SM SKC 
     FM232200 26009KT P6SM SCT200
       
KSBY 222326Z 2300/2324 29012G20KT P6SM SKC 
     FM230100 29009KT P6SM SCT200 
     FM230300 28004KT P6SM SKC 
     FM231500 28012G20KT P6SM SKC 
     FM232100 25012G20KT P6SM SCT200 
     FM232300 23009KT P6SM SCT200